Time;durP1;ratioP1;P1;durP2;ratioP2;P2;SDS_P1;SDS_P2;PMS_P1;PMS_P2;Temp;Humidity;BMP_temperature;BMP_pressure;BME280_temperature;BME280_humidity;BME280_pressure;Samples;Min_cycle;Max_cycle;Signal;HPM_P1;HPM_P2
2023/03/25 00:02:19;;;;;;;10.33;9.10;;;26.20;99.90;;;;;;5073430;28;20048;-75
2023/03/25 00:04:51;;;;;;;19.45;10.88;;;26.10;99.90;;;;;;5073039;28;20362;-74
2023/03/25 00:07:18;;;;;;;;;;;26.10;99.90;;;;;;5071468;28;20021;-75
2023/03/25 00:09:46;;;;;;;22.05;11.15;;;26.10;99.90;;;;;;5073124;28;19915;-75
2023/03/25 00:12:14;;;;;;;12.93;10.15;;;26.10;99.90;;;;;;5073088;28;20081;-74
2023/03/25 00:14:41;;;;;;;15.27;10.68;;;26.10;99.90;;;;;;5073013;28;20021;-74
2023/03/25 00:17:09;;;;;;;13.15;9.43;;;26.10;99.90;;;;;;5073477;28;20017;-73
2023/03/25 00:19:35;;;;;;;14.50;9.07;;;26.10;99.90;;;;;;5071356;28;20024;-74
2023/03/25 00:22:02;;;;;;;25.00;10.75;;;26.20;99.90;;;;;;5072306;28;20066;-74
2023/03/25 00:24:29;;;;;;;20.48;10.45;;;26.20;99.90;;;;;;5073098;28;20016;-73
2023/03/25 00:26:55;;;;;;;23.35;11.88;;;26.20;99.90;;;;;;5073243;28;20016;-72
2023/03/25 00:29:22;;;;;;;24.90;13.50;;;26.10;99.90;;;;;;5071546;28;20104;-79
2023/03/25 00:31:48;;;;;;;22.00;13.65;;;26.10;99.90;;;;;;5072954;28;20027;-75
2023/03/25 00:34:15;;;;;;;18.52;12.88;;;26.10;99.90;;;;;;5073169;28;20013;-75
2023/03/25 00:36:42;;;;;;;32.95;20.45;;;26.20;99.90;;;;;;5070333;28;20017;-75
2023/03/25 00:39:09;;;;;;;35.30;21.00;;;26.20;99.90;;;;;;5072982;28;20513;-75
2023/03/25 00:41:36;;;;;;;20.70;14.77;;;26.10;99.90;;;;;;5072913;28;20449;-74
2023/03/25 00:44:03;;;;;;;20.77;13.98;;;26.10;99.90;;;;;;5073184;28;20378;-75
2023/03/25 00:46:31;;;;;;;21.38;12.30;;;26.10;99.90;;;;;;5072641;28;20023;-75
2023/03/25 00:48:59;;;;;;;22.55;12.38;;;26.00;99.90;;;;;;5059137;28;20037;-77
2023/03/25 00:51:30;;;;;;;27.08;14.95;;;26.10;99.90;;;;;;5061763;28;20028;-75
2023/03/25 00:53:59;;;;;;;31.10;15.18;;;26.00;99.90;;;;;;5066729;28;20064;-78
2023/03/25 00:56:27;;;;;;;20.50;10.85;;;25.90;99.90;;;;;;5073214;28;20029;-75
2023/03/25 00:58:53;;;;;;;27.80;15.25;;;25.80;99.90;;;;;;5073183;28;20032;-75
2023/03/25 01:01:25;;;;;;;25.83;14.13;;;25.80;99.90;;;;;;5072972;28;20031;-74
2023/03/25 01:03:58;;;;;;;;;;;25.70;99.90;;;;;;5073530;28;20017;-76
2023/03/25 01:06:31;;;;;;;33.42;11.77;;;25.60;99.90;;;;;;5072044;28;20307;-76
2023/03/25 01:09:00;;;;;;;27.13;11.52;;;25.50;99.90;;;;;;5072235;28;20439;-80
2023/03/25 01:11:30;;;;;;;21.83;10.75;;;25.40;99.90;;;;;;5072445;28;20024;-79
2023/03/25 01:13:58;;;;;;;18.80;8.60;;;25.30;99.90;;;;;;5072539;28;20024;-80
2023/03/25 01:16:25;;;;;;;13.88;7.82;;;25.20;99.90;;;;;;5072833;28;20082;-83
2023/03/25 01:18:53;;;;;;;16.25;9.40;;;25.10;99.90;;;;;;5072839;28;20024;-74
2023/03/25 01:21:19;;;;;;;15.18;9.13;;;25.10;99.90;;;;;;5073110;28;20070;-75
2023/03/25 01:23:46;;;;;;;15.80;10.20;;;25.10;99.90;;;;;;5070460;28;20078;-75
2023/03/25 01:26:13;;;;;;;13.10;8.75;;;25.10;99.90;;;;;;5074437;28;20028;-73
2023/03/25 01:28:41;;;;;;;19.08;10.88;;;25.10;99.90;;;;;;5076848;28;20036;-76
2023/03/25 01:31:10;;;;;;;15.63;10.38;;;25.20;99.90;;;;;;5076813;28;20464;-77
2023/03/25 01:33:37;;;;;;;13.50;8.75;;;25.30;99.90;;;;;;5074297;28;20047;-74
2023/03/25 01:36:08;;;;;;;22.02;11.82;;;25.50;99.90;;;;;;5076654;28;20023;-75
2023/03/25 01:38:37;;;;;;;26.67;13.10;;;25.50;99.90;;;;;;5076530;28;20462;-74
2023/03/25 01:41:05;;;;;;;20.45;12.63;;;25.60;99.90;;;;;;5076605;28;20038;-75
2023/03/25 01:43:32;;;;;;;34.80;16.38;;;25.60;99.90;;;;;;5076116;28;20020;-78
2023/03/25 01:46:00;;;;;;;19.45;14.05;;;25.60;99.90;;;;;;5075451;28;20048;-77
2023/03/25 01:48:36;;;;;;;22.98;14.50;;;25.60;99.90;;;;;;5074123;28;20040;-74
2023/03/25 03:48:17;;;;;;;53.95;45.88;;;25.10;99.90;;;;;;5091295;28;20609;-75
2023/03/25 03:50:49;;;;;;;49.47;42.28;;;25.20;99.90;;;;;;5082776;28;20104;-73
2023/03/25 03:53:26;;;;;;;50.63;43.58;;;25.30;99.90;;;;;;5066472;28;20012;-73
2023/03/25 03:56:02;;;;;;;45.00;39.28;;;25.50;99.90;;;;;;5072474;28;20013;-73
2023/03/25 03:58:34;;;;;;;40.38;35.65;;;25.70;99.90;;;;;;5080560;28;20104;-73
2023/03/25 04:01:03;;;;;;;40.53;34.67;;;25.80;99.90;;;;;;5074141;28;20023;-71
2023/03/25 04:03:39;;;;;;;40.15;35.60;;;25.90;99.90;;;;;;5079717;28;20094;-74
2023/03/25 04:06:13;;;;;;;37.15;33.10;;;25.90;99.90;;;;;;5074481;28;20166;-74
2023/03/25 04:08:51;;;;;;;37.95;34.00;;;25.90;99.90;;;;;;5077082;28;20013;-73
2023/03/25 04:11:23;;;;;;;34.20;30.60;;;26.00;99.90;;;;;;5071707;28;20062;-73
2023/03/25 04:13:59;;;;;;;33.65;30.15;;;26.10;99.90;;;;;;5080346;28;20017;-74
2023/03/25 04:16:27;;;;;;;33.70;29.20;;;26.20;99.90;;;;;;5078691;28;20016;-74
2023/03/25 04:18:54;;;;;;;33.28;25.83;;;26.30;99.90;;;;;;5075013;28;20036;-75
2023/03/25 04:21:21;;;;;;;29.33;24.77;;;26.20;99.90;;;;;;5076081;28;20481;-72
2023/03/25 04:23:48;;;;;;;30.52;25.30;;;26.40;99.90;;;;;;5072503;28;20385;-74
2023/03/25 04:26:15;;;;;;;23.67;20.90;;;26.50;99.90;;;;;;5057223;28;20074;-76
2023/03/25 04:28:43;;;;;;;20.05;17.95;;;26.50;99.90;;;;;;5054138;28;20435;-73
2023/03/25 04:31:15;;;;;;;21.20;18.90;;;26.50;99.90;;;;;;5055149;28;20025;-76
2023/03/25 04:33:47;;;;;;;21.27;18.05;;;26.50;99.90;;;;;;5051573;28;20505;-76
2023/03/25 04:36:14;;;;;;;22.80;20.05;;;26.60;99.90;;;;;;5053279;28;20151;-73
2023/03/25 04:38:44;;;;;;;21.58;19.27;;;26.60;99.90;;;;;;5054697;28;20021;-73
2023/03/25 04:41:12;;;;;;;22.55;20.17;;;26.70;99.90;;;;;;5056502;28;20064;-73
2023/03/25 04:43:39;;;;;;;23.00;20.63;;;26.80;99.90;;;;;;5049107;28;20354;-74
2023/03/25 04:46:08;;;;;;;24.60;20.30;;;26.80;99.90;;;;;;5055496;28;20112;-73
2023/03/25 04:48:40;;;;;;;27.73;23.27;;;26.90;99.90;;;;;;5055150;28;20103;-76
2023/03/25 04:51:09;;;;;;;34.90;30.87;;;26.90;99.90;;;;;;5058651;28;20466;-73
2023/03/25 04:53:37;;;;;;;29.65;26.55;;;26.90;99.90;;;;;;5058204;28;20585;-74
2023/03/25 04:56:06;;;;;;;23.90;21.40;;;26.90;99.90;;;;;;5050072;28;20140;-76
2023/03/25 04:58:35;;;;;;;22.40;20.00;;;26.80;99.90;;;;;;5047107;28;20025;-76
2023/03/25 05:01:04;;;;;;;23.58;21.02;;;26.90;99.90;;;;;;5036565;28;20108;-74
2023/03/25 05:03:34;;;;;;;29.73;26.58;;;27.00;99.90;;;;;;5038917;28;20470;-75
2023/03/25 05:06:00;;;;;;;27.40;22.58;;;27.00;99.90;;;;;;5038712;28;20086;-76
2023/03/25 05:08:27;;;;;;;19.05;16.75;;;27.00;99.90;;;;;;5044517;28;20405;-74
2023/03/25 05:10:55;;;;;;;20.55;15.32;;;27.00;99.90;;;;;;5037867;28;20104;-74
2023/03/25 05:13:21;;;;;;;18.40;15.07;;;27.00;99.90;;;;;;5046221;28;20225;-78
2023/03/25 05:15:48;;;;;;;14.88;13.30;;;27.00;99.90;;;;;;5030314;28;20055;-72
2023/03/25 05:18:15;;;;;;;13.95;12.48;;;27.20;99.90;;;;;;5030288;28;20018;-75
2023/03/25 05:20:45;;;;;;;21.08;15.25;;;27.10;99.90;;;;;;5032901;28;20021;-75
2023/03/25 05:23:16;;;;;;;14.30;12.80;;;27.20;99.90;;;;;;5034987;28;20022;-74
2023/03/25 05:25:46;;;;;;;15.75;14.02;;;27.20;99.90;;;;;;5051744;28;20086;-74
2023/03/25 05:28:13;;;;;;;17.92;13.60;;;27.30;99.90;;;;;;5051375;28;20091;-77
2023/03/25 05:30:42;;;;;;;15.15;13.13;;;27.30;99.90;;;;;;5034806;28;20029;-76
2023/03/25 05:33:09;;;;;;;15.43;13.80;;;27.30;99.90;;;;;;5032953;28;20017;-74
2023/03/25 05:35:37;;;;;;;15.70;14.05;;;27.40;99.90;;;;;;5042377;28;20064;-75
2023/03/25 05:38:06;;;;;;;15.02;13.43;;;27.40;99.90;;;;;;5041754;28;20025;-74
2023/03/25 05:40:34;;;;;;;15.88;13.32;;;27.50;99.90;;;;;;5041359;28;20096;-72
2023/03/25 05:43:02;;;;;;;13.82;12.40;;;27.50;99.90;;;;;;5041155;28;20051;-73
2023/03/25 05:45:29;;;;;;;14.73;12.95;;;27.60;99.90;;;;;;5043601;28;20330;-73
2023/03/25 05:47:58;;;;;;;12.57;11.38;;;27.60;99.90;;;;;;5045017;28;20557;-75
2023/03/25 05:50:26;;;;;;;14.30;11.50;;;27.60;99.90;;;;;;5044769;28;20021;-73
2023/03/25 05:52:54;;;;;;;15.27;11.55;;;27.70;99.90;;;;;;5041913;28;20421;-75
2023/03/25 05:55:22;;;;;;;14.10;11.98;;;27.80;99.90;;;;;;5038042;28;20084;-73
2023/03/25 05:57:52;;;;;;;14.88;11.88;;;27.80;99.90;;;;;;5040604;28;20033;-71
2023/03/25 06:00:20;;;;;;;13.10;11.73;;;27.80;99.90;;;;;;5040064;28;20033;-69
2023/03/25 06:02:47;;;;;;;15.25;12.10;;;27.80;99.90;;;;;;5044341;28;20024;-72
2023/03/25 06:05:15;;;;;;;14.02;12.50;;;27.90;99.90;;;;;;5043838;28;20022;-76
2023/03/25 06:07:46;;;;;;;14.95;12.23;;;27.90;99.90;;;;;;5042846;28;20020;-76
2023/03/25 06:10:16;;;;;;;12.45;11.15;;;28.00;99.90;;;;;;5037131;28;20028;-75
2023/03/25 06:12:44;;;;;;;13.60;11.13;;;28.00;99.90;;;;;;5042756;28;20029;-71
2023/03/25 06:15:13;;;;;;;13.38;11.98;;;28.00;99.90;;;;;;5037801;28;20053;-73
2023/03/25 06:17:39;;;;;;;16.52;12.60;;;28.00;99.90;;;;;;5037263;28;20033;-68
2023/03/25 06:20:11;;;;;;;16.08;14.23;;;28.00;99.90;;;;;;5039430;28;20036;-74
2023/03/25 06:22:39;;;;;;;17.13;15.30;;;28.00;99.90;;;;;;5034167;28;20029;-73
2023/03/25 06:25:06;;;;;;;16.25;14.18;;;28.00;99.90;;;;;;5036531;28;20030;-74
2023/03/25 06:27:33;;;;;;;17.25;15.45;;;28.00;99.90;;;;;;5034202;28;20487;-75
2023/03/25 06:30:02;;;;;;;18.25;16.42;;;28.00;99.90;;;;;;5033736;28;20022;-77
2023/03/25 06:32:29;;;;;;;21.63;17.85;;;28.00;99.90;;;;;;5034030;28;20547;-74
2023/03/25 06:34:56;;;;;;;21.25;19.02;;;28.00;99.90;;;;;;5034347;28;20525;-75
2023/03/25 06:37:24;;;;;;;16.92;15.13;;;28.10;99.90;;;;;;5034346;28;20025;-76
2023/03/25 06:39:55;;;;;;;17.45;14.35;;;28.10;99.90;;;;;;5034197;28;20028;-73
2023/03/25 06:42:23;;;;;;;16.35;14.40;;;28.10;99.90;;;;;;5034312;28;20148;-73
2023/03/25 06:44:49;;;;;;;17.90;14.60;;;28.10;99.90;;;;;;5034173;28;20075;-73
2023/03/25 06:47:16;;;;;;;14.07;12.57;;;28.10;99.90;;;;;;5033914;28;20038;-76
2023/03/25 06:49:42;;;;;;;12.32;10.95;;;28.10;99.90;;;;;;5034104;28;20028;-76
2023/03/25 06:52:10;;;;;;;11.65;10.45;;;28.10;99.90;;;;;;5034074;28;20025;-75
2023/03/25 06:54:37;;;;;;;15.68;11.80;;;28.20;99.90;;;;;;5033846;28;20470;-77
2023/03/25 06:57:04;;;;;;;11.68;9.85;;;28.20;99.90;;;;;;5033976;28;20028;-77
2023/03/25 06:59:31;;;;;;;12.75;9.05;;;28.30;99.90;;;;;;5033986;28;20382;-76
2023/03/25 07:01:58;;;;;;;12.77;9.70;;;28.40;99.90;;;;;;5033594;28;20032;-75
2023/03/25 07:04:25;;;;;;;10.88;9.32;;;28.40;99.90;;;;;;5033641;28;20167;-76
2023/03/25 07:06:52;;;;;;;9.77;8.50;;;28.50;99.90;;;;;;5033537;28;20087;-74
2023/03/25 07:09:18;;;;;;;9.68;8.35;;;28.50;99.90;;;;;;5033462;28;20067;-73
2023/03/25 07:11:45;;;;;;;9.98;8.13;;;28.50;99.90;;;;;;5033583;28;20019;-71
2023/03/25 07:14:11;;;;;;;13.18;9.35;;;28.60;99.90;;;;;;5033543;28;20061;-72
2023/03/25 07:16:38;;;;;;;10.20;8.27;;;28.60;99.90;;;;;;5033354;28;20028;-77
2023/03/25 07:19:05;;;;;;;11.40;8.68;;;28.60;99.90;;;;;;5029563;28;20384;-78
2023/03/25 07:21:31;;;;;;;9.48;8.05;;;28.70;99.90;;;;;;5017078;28;20088;-75
2023/03/25 07:23:58;;;;;;;10.73;8.20;;;28.80;99.90;;;;;;5033358;28;20025;-76
2023/03/25 07:26:24;;;;;;;8.52;7.20;;;28.90;99.90;;;;;;5033254;28;20021;-77
2023/03/25 07:28:51;;;;;;;10.50;6.95;;;28.90;99.90;;;;;;5042031;28;20018;-73
2023/03/25 07:31:17;;;;;;;10.30;7.30;;;29.00;99.90;;;;;;5041858;28;20213;-72
2023/03/25 07:33:44;;;;;;;9.52;7.72;;;29.10;99.90;;;;;;5043365;28;20013;-74
2023/03/25 07:36:12;;;;;;;12.65;8.18;;;29.10;99.90;;;;;;5040837;28;20147;-74
2023/03/25 07:38:39;;;;;;;7.68;6.88;;;29.20;99.90;;;;;;5026981;28;20030;-74
2023/03/25 07:41:08;;;;;;;10.05;7.15;;;29.20;99.90;;;;;;5015121;28;20483;-73
2023/03/25 07:43:34;;;;;;;9.27;7.15;;;29.30;99.90;;;;;;5013618;28;20471;-78
2023/03/25 07:46:01;;;;;;;7.78;6.97;;;29.30;99.90;;;;;;5013190;28;20030;-77
2023/03/25 07:48:27;;;;;;;8.10;7.30;;;29.30;99.90;;;;;;5013525;28;20029;-77
2023/03/25 07:50:54;;;;;;;9.88;7.03;;;29.30;99.90;;;;;;5013445;28;20018;-74
2023/03/25 07:53:20;;;;;;;8.43;6.97;;;29.30;99.90;;;;;;5013250;28;20018;-73
2023/03/25 07:55:49;;;;;;;12.25;7.85;;;29.30;99.90;;;;;;5022465;28;20071;-73
2023/03/25 07:58:17;;;;;;;10.80;8.23;;;29.30;99.90;;;;;;5042837;28;20052;-73
2023/03/25 08:00:45;;;;;;;9.13;7.85;;;29.30;99.90;;;;;;5040615;28;20029;-74
2023/03/25 08:03:12;;;;;;;10.77;9.05;;;29.30;99.90;;;;;;5034826;28;20096;-73
2023/03/25 08:05:46;;;;;;;12.23;8.63;;;29.40;99.90;;;;;;5030594;28;20022;-77
2023/03/25 08:08:13;;;;;;;11.05;9.40;;;29.40;99.90;;;;;;5029706;28;20029;-75
2023/03/25 08:10:42;;;;;;;12.15;7.75;;;29.50;99.90;;;;;;5035527;28;20025;-75
2023/03/25 08:13:10;;;;;;;8.55;7.65;;;29.50;99.90;;;;;;5042257;28;20020;-77
2023/03/25 08:15:36;;;;;;;12.20;8.57;;;29.50;99.90;;;;;;5041033;28;20052;-76
2023/03/25 08:18:04;;;;;;;10.23;7.38;;;29.50;99.90;;;;;;5027720;28;20025;-75
2023/03/25 08:20:30;;;;;;;9.98;8.25;;;29.60;99.90;;;;;;5031115;28;20072;-74
2023/03/25 08:22:57;;;;;;;17.67;9.07;;;29.60;99.90;;;;;;5052870;28;20024;-75
2023/03/25 08:25:24;;;;;;;9.40;8.40;;;29.60;99.90;;;;;;5052834;28;20033;-76
2023/03/25 08:27:51;;;;;;;12.90;8.82;;;29.60;99.90;;;;;;5041477;28;20026;-75
2023/03/25 08:30:17;;;;;;;15.80;9.85;;;29.60;99.90;;;;;;5032366;28;20406;-75
2023/03/25 08:32:45;;;;;;;14.70;9.60;;;29.70;99.90;;;;;;5032088;28;20018;-77
2023/03/25 08:35:12;;;;;;;12.10;9.35;;;29.70;99.90;;;;;;5035572;28;20409;-75
2023/03/25 08:37:39;;;;;;;13.75;9.05;;;29.70;99.90;;;;;;5035342;28;20027;-77
2023/03/25 08:40:08;;;;;;;16.88;10.20;;;29.70;99.90;;;;;;5036522;28;20022;-77
2023/03/25 08:42:36;;;;;;;13.02;9.98;;;29.70;99.90;;;;;;5036461;28;20439;-78
2023/03/25 08:45:03;;;;;;;12.73;9.55;;;29.70;99.90;;;;;;5036177;28;20156;-77
2023/03/25 08:47:30;;;;;;;15.80;10.45;;;29.70;99.90;;;;;;5036029;28;20053;-76
2023/03/25 08:49:57;;;;;;;14.18;11.13;;;29.80;99.90;;;;;;5036437;28;20036;-75
2023/03/25 08:52:24;;;;;;;14.32;11.07;;;29.80;99.90;;;;;;5036147;28;20044;-76
2023/03/25 08:54:50;;;;;;;19.25;11.00;;;29.80;99.90;;;;;;5036309;28;20075;-77
2023/03/25 08:57:17;;;;;;;18.08;11.57;;;29.70;99.90;;;;;;5019761;28;20076;-75
2023/03/25 08:59:43;;;;;;;14.55;11.43;;;29.80;99.90;;;;;;5016548;28;20026;-76
2023/03/25 09:02:12;;;;;;;16.77;10.70;;;29.90;99.90;;;;;;5030155;28;20053;-75
2023/03/25 09:04:38;;;;;;;13.27;10.90;;;29.80;99.90;;;;;;5036147;28;20030;-74
2023/03/25 09:07:09;;;;;;;11.68;9.25;;;29.80;99.90;;;;;;5039244;28;20022;-75
2023/03/25 09:09:37;;;;;;;11.73;8.90;;;29.80;99.90;;;;;;5047503;28;20025;-74
2023/03/25 09:12:05;;;;;;;14.85;9.20;;;29.90;99.90;;;;;;5056260;28;20466;-76
2023/03/25 09:14:32;;;;;;;10.38;9.27;;;29.90;99.90;;;;;;5056006;28;20036;-76
2023/03/25 09:16:59;;;;;;;13.52;10.48;;;29.90;99.90;;;;;;5055822;28;20028;-76
2023/03/25 09:19:26;;;;;;;12.68;9.63;;;30.00;99.90;;;;;;5055788;28;20051;-76
2023/03/25 09:21:53;;;;;;;9.80;8.63;;;30.00;99.90;;;;;;5055550;28;20485;-75
2023/03/25 09:24:21;;;;;;;12.05;8.32;;;30.00;99.90;;;;;;5055669;28;20032;-76
2023/03/25 09:26:48;;;;;;;9.63;8.27;;;30.00;99.90;;;;;;5055623;28;20028;-77
2023/03/25 09:29:15;;;;;;;9.60;7.50;;;30.10;99.90;;;;;;5055405;28;20025;-78
2023/03/25 09:31:41;;;;;;;10.57;8.00;;;30.00;99.90;;;;;;5055551;28;20021;-77
2023/03/25 09:34:08;;;;;;;9.98;7.80;;;30.10;99.90;;;;;;5055394;28;20031;-78
2023/03/25 09:36:36;;;;;;;8.48;7.60;;;30.10;99.90;;;;;;5055315;28;20051;-78
2023/03/25 09:39:02;;;;;;;9.57;7.45;;;30.10;99.90;;;;;;5051937;28;20017;-76
2023/03/25 09:41:39;;;;;;;7.25;6.55;;;30.00;99.90;;;;;;5035380;28;20028;-78
2023/03/25 09:44:07;;;;;;;9.43;7.55;;;30.00;99.90;;;;;;5035153;28;20022;-78
2023/03/25 09:46:37;;;;;;;80.82;70.28;;;30.00;99.90;;;;;;5035057;28;20632;-76
2023/03/25 09:49:09;;;;;;;43.25;35.08;;;30.00;99.90;;;;;;5035122;28;20053;-77
2023/03/25 09:51:37;;;;;;;13.80;11.85;;;30.00;99.90;;;;;;5035218;28;20482;-77
2023/03/25 09:54:15;;;;;;;16.08;10.15;;;30.00;99.90;;;;;;5035061;28;20021;-72
2023/03/25 09:56:43;;;;;;;10.80;7.72;;;30.00;99.90;;;;;;5034901;28;20030;-66
2023/03/25 09:59:12;;;;;;;14.55;9.40;;;29.90;99.90;;;;;;5035120;28;20021;-66
2023/03/25 10:01:44;;;;;;;13.05;10.85;;;29.90;99.90;;;;;;5035022;28;20026;-66
2023/03/25 10:04:13;;;;;;;;;;;29.90;99.90;;;;;;5035656;28;20029;-67
2023/03/25 10:06:59;;;;;;;9.73;6.55;;;29.90;99.90;;;;;;5034872;28;19916;-63
2023/03/25 10:09:33;;;;;;;9.07;7.28;;;29.80;99.90;;;;;;5032094;28;20103;-65
2023/03/25 10:12:05;;;;;;;9.52;7.97;;;29.80;99.90;;;;;;5034868;28;20429;-65
2023/03/25 10:14:35;;;;;;;9.40;8.13;;;29.80;99.90;;;;;;5034573;28;20025;-62
2023/03/25 10:17:06;;;;;;;10.02;8.65;;;29.70;99.90;;;;;;5035153;28;20111;-64
2023/03/25 10:19:55;;;;;;;10.10;7.78;;;29.70;99.90;;;;;;5034737;28;20037;-64
2023/03/25 10:22:30;;;;;;;11.80;8.77;;;29.70;99.90;;;;;;5028280;28;20047;-65
2023/03/25 10:25:01;;;;;;;12.60;8.25;;;29.60;99.90;;;;;;5040990;28;20039;-64
2023/03/25 10:27:42;;;;;;;15.93;8.93;;;29.60;99.90;;;;;;5040752;28;20398;-66
2023/03/25 10:30:14;;;;;;;13.38;9.48;;;29.60;99.90;;;;;;5042922;28;20060;-68
2023/03/25 10:32:49;;;;;;;10.05;8.80;;;29.60;99.90;;;;;;5042977;28;20037;-70
2023/03/25 10:35:20;;;;;;;11.48;8.52;;;29.50;99.90;;;;;;5037666;28;20049;-69
2023/03/25 10:37:50;;;;;;;14.23;8.97;;;29.50;99.90;;;;;;5044987;28;20400;-70
2023/03/25 10:40:19;;;;;;;11.85;10.63;;;29.50;99.90;;;;;;5040695;28;20029;-69
2023/03/25 10:43:08;;;;;;;17.73;10.55;;;29.50;99.90;;;;;;5042490;28;20087;-70
2023/03/25 10:45:36;;;;;;;11.43;9.40;;;29.50;99.90;;;;;;5021041;28;20044;-70
2023/03/25 10:48:10;;;;;;;11.20;9.27;;;29.40;99.90;;;;;;5037045;28;20044;-68
2023/03/25 10:50:38;;;;;;;11.25;8.85;;;29.40;99.90;;;;;;5041815;28;20014;-71
2023/03/25 10:53:04;;;;;;;12.15;8.85;;;29.30;99.90;;;;;;5041709;28;20414;-70
2023/03/25 10:55:35;;;;;;;10.77;8.00;;;29.30;99.90;;;;;;5041219;28;20037;-70
2023/03/25 10:58:02;;;;;;;9.00;7.18;;;29.20;99.90;;;;;;5041350;28;20032;-70
2023/03/25 11:00:29;;;;;;;8.00;7.10;;;29.20;99.90;;;;;;5032904;28;20029;-70
2023/03/25 11:02:55;;;;;;;10.05;9.02;;;29.10;99.90;;;;;;5042128;28;20465;-69
2023/03/25 11:05:26;;;;;;;15.52;9.80;;;29.20;99.90;;;;;;5038188;28;20018;-70
2023/03/25 11:07:57;;;;;;;11.38;8.55;;;29.10;99.90;;;;;;5040918;28;20033;-70
2023/03/25 11:10:25;;;;;;;11.00;8.35;;;29.00;99.90;;;;;;5038070;28;20014;-70
2023/03/25 11:12:53;;;;;;;11.15;8.63;;;29.00;99.90;;;;;;5040835;28;20382;-68
2023/03/25 11:15:23;;;;;;;28.75;23.67;;;29.00;99.90;;;;;;5038525;28;20028;-69
2023/03/25 11:17:57;;;;;;;36.05;26.02;;;28.90;99.90;;;;;;5033482;28;20105;-69
2023/03/25 11:20:29;;;;;;;28.15;18.85;;;29.00;99.90;;;;;;5017188;28;20108;-69
2023/03/25 11:23:00;;;;;;;;;;;29.00;99.90;;;;;;5034232;28;20363;-71
2023/03/25 11:25:31;;;;;;;56.58;43.88;;;29.00;99.90;;;;;;5033581;28;19955;-69
2023/03/25 11:28:01;;;;;;;18.77;14.77;;;28.90;99.90;;;;;;5037018;28;20557;-70
2023/03/25 11:30:28;;;;;;;56.75;37.10;;;28.90;99.90;;;;;;5033876;28;20111;-71
2023/03/25 11:33:01;;;;;;;260.80;158.15;;;28.80;99.90;;;;;;5035169;28;20079;-73
2023/03/25 11:35:30;;;;;;;40.03;27.25;;;28.80;99.90;;;;;;5040774;28;20026;-73
2023/03/25 11:37:59;;;;;;;17.55;12.45;;;28.80;99.90;;;;;;5034646;28;20021;-74
2023/03/25 11:40:27;;;;;;;26.42;18.67;;;28.80;99.90;;;;;;5042100;28;20031;-73
2023/03/25 11:42:57;;;;;;;38.45;28.75;;;28.70;99.90;;;;;;5035990;28;20017;-74
2023/03/25 11:45:38;;;;;;;23.95;17.17;;;28.70;99.90;;;;;;5048424;28;20104;-73
2023/03/25 11:48:10;;;;;;;33.78;17.38;;;28.70;99.90;;;;;;5043678;28;20069;-71
2023/03/25 11:50:36;;;;;;;29.15;16.48;;;28.70;99.90;;;;;;5053232;28;20029;-74
2023/03/25 11:53:05;;;;;;;26.85;18.23;;;28.60;99.90;;;;;;5037052;28;20045;-74
2023/03/25 11:55:42;;;;;;;22.45;14.13;;;28.50;99.90;;;;;;5030318;28;20025;-73
2023/03/25 11:58:16;;;;;;;21.73;15.15;;;28.40;99.90;;;;;;5038862;28;20033;-73
2023/03/25 12:00:48;;;;;;;31.20;19.65;;;28.30;99.90;;;;;;5039303;28;20488;-73
2023/03/25 12:03:18;;;;;;;30.73;20.00;;;28.30;99.90;;;;;;5041873;28;20026;-74
2023/03/25 12:05:58;;;;;;;28.90;20.30;;;28.40;99.90;;;;;;5043417;28;20029;-71
2023/03/25 12:08:30;;;;;;;29.63;20.40;;;28.40;99.90;;;;;;5031662;28;20437;-75
2023/03/25 12:11:00;;;;;;;32.67;21.70;;;28.20;99.90;;;;;;5036815;28;20534;-74
2023/03/25 12:13:32;;;;;;;29.08;19.60;;;28.20;99.90;;;;;;5045639;28;20738;-75
2023/03/25 12:16:06;;;;;;;35.08;20.90;;;28.20;99.90;;;;;;5035666;28;20078;-73
2023/03/25 12:18:38;;;;;;;77.30;53.60;;;28.20;99.90;;;;;;5042120;28;20378;-73
2023/03/25 12:21:24;;;;;;;60.58;41.95;;;28.20;99.90;;;;;;5038563;28;20022;-75
2023/03/25 12:23:54;;;;;;;66.65;44.50;;;28.10;99.90;;;;;;5046667;28;20032;-74
2023/03/25 12:26:37;;;;;;;93.95;53.50;;;28.20;99.90;;;;;;5041620;28;20135;-74
2023/03/25 12:29:06;;;;;;;78.05;53.30;;;28.10;99.90;;;;;;5036857;28;20030;-73
2023/03/25 12:31:36;;;;;;;33.65;24.23;;;28.10;99.90;;;;;;5042072;28;20128;-73
2023/03/25 12:34:16;;;;;;;34.38;23.63;;;28.10;99.90;;;;;;5046525;28;20031;-74
2023/03/25 12:36:46;;;;;;;29.30;16.40;;;28.10;99.90;;;;;;5048023;28;20062;-74
2023/03/25 12:39:22;;;;;;;33.25;18.52;;;28.10;99.90;;;;;;5044561;28;20037;-73
2023/03/25 12:42:08;;;;;;;52.70;39.08;;;28.20;99.90;;;;;;5039187;28;20328;-72
2023/03/25 12:44:37;;;;;;;25.92;17.67;;;28.10;99.90;;;;;;5042267;28;20022;-73
2023/03/25 12:47:09;;;;;;;20.67;13.57;;;28.00;99.90;;;;;;5038045;28;20514;-73
2023/03/25 12:49:45;;;;;;;19.77;13.90;;;28.00;99.90;;;;;;5037307;28;20028;-72
2023/03/25 12:52:20;;;;;;;22.98;15.40;;;28.00;99.90;;;;;;5036321;28;20418;-69
2023/03/25 12:54:51;;;;;;;25.10;15.65;;;27.80;99.90;;;;;;5035708;28;20014;-72
2023/03/25 12:57:23;;;;;;;29.35;16.25;;;27.80;99.90;;;;;;5036886;28;20120;-71
2023/03/25 12:59:59;;;;;;;24.80;16.98;;;27.90;99.90;;;;;;5031656;28;20453;-71
2023/03/25 13:02:28;;;;;;;24.50;17.23;;;27.80;99.90;;;;;;5038958;28;20121;-72
2023/03/25 13:04:56;;;;;;;29.35;18.98;;;27.90;99.90;;;;;;5043522;28;20033;-71
2023/03/25 13:07:48;;;;;;;130.52;104.00;;;27.80;99.90;;;;;;5037652;28;20500;-71
2023/03/25 13:10:16;;;;;;;50.55;35.53;;;27.80;99.90;;;;;;5034301;28;20557;-72
2023/03/25 13:12:49;;;;;;;95.45;74.00;;;27.90;99.90;;;;;;5024715;28;20021;-72
2023/03/25 13:15:21;;;;;;;42.45;28.77;;;27.90;99.90;;;;;;5027521;28;20017;-73
2023/03/25 13:17:56;;;;;;;27.02;18.75;;;27.90;99.90;;;;;;5032549;28;20057;-72
2023/03/25 13:20:27;;;;;;;27.23;18.15;;;27.90;99.90;;;;;;5031673;28;20513;-72
2023/03/25 13:23:00;;;;;;;32.50;21.50;;;27.90;99.90;;;;;;5029452;28;20030;-72
2023/03/25 13:25:35;;;;;;;35.70;20.73;;;27.90;99.90;;;;;;5033681;28;20026;-72
2023/03/25 13:28:05;;;;;;;30.70;19.35;;;27.90;99.90;;;;;;5028652;28;20433;-71
2023/03/25 13:30:38;;;;;;;32.63;21.55;;;27.80;99.90;;;;;;5027505;28;20473;-72
2023/03/25 13:33:27;;;;;;;30.98;20.80;;;27.70;99.90;;;;;;5028578;28;20029;-70
2023/03/25 13:35:54;;;;;;;36.78;23.77;;;27.70;99.90;;;;;;5038276;28;20029;-70
2023/03/25 13:38:45;;;;;;;34.25;23.50;;;27.70;99.90;;;;;;5035516;28;20025;-71
2023/03/25 13:41:18;;;;;;;34.42;22.67;;;27.70;99.90;;;;;;5032251;28;20109;-69
2023/03/25 13:43:49;;;;;;;31.83;21.20;;;27.60;99.90;;;;;;5017652;28;20060;-69
2023/03/25 13:46:21;;;;;;;37.35;21.30;;;27.70;99.90;;;;;;5015785;28;20033;-69
2023/03/25 13:51:21;;;;;;;29.02;19.38;;;27.60;99.90;;;;;;5028019;28;20049;-67
2023/03/25 13:53:55;;;;;;;33.58;21.33;;;27.60;99.90;;;;;;5031740;28;20083;-69
2023/03/25 13:56:27;;;;;;;34.20;23.33;;;27.50;99.90;;;;;;5034094;28;20025;-70
2023/03/25 13:58:58;;;;;;;36.28;23.45;;;27.60;99.90;;;;;;5035994;28;20017;-70
2023/03/25 14:01:30;;;;;;;32.63;21.20;;;27.60;99.90;;;;;;5034931;28;20087;-71
2023/03/25 14:04:05;;;;;;;30.60;22.45;;;27.60;99.90;;;;;;5035002;28;20029;-72
2023/03/25 14:06:33;;;;;;;26.33;18.67;;;27.60;99.90;;;;;;5034830;28;20021;-72
2023/03/25 14:09:04;;;;;;;28.25;19.58;;;27.60;99.90;;;;;;5034709;28;20067;-72
2023/03/25 14:11:34;;;;;;;32.38;18.52;;;27.60;99.90;;;;;;5034577;28;20029;-71
2023/03/25 14:14:10;;;;;;;28.83;18.30;;;27.60;99.90;;;;;;5034578;28;20359;-70
2023/03/25 14:16:44;;;;;;;31.75;18.35;;;27.50;99.90;;;;;;5035293;28;20018;-71
2023/03/25 14:19:15;;;;;;;25.50;17.63;;;27.50;99.90;;;;;;5034822;28;20029;-71
2023/03/25 14:21:47;;;;;;;26.63;18.58;;;27.50;99.90;;;;;;5034683;28;20067;-72
2023/03/25 14:24:16;;;;;;;29.08;18.02;;;27.50;99.90;;;;;;5034982;28;20024;-69
2023/03/25 14:26:53;;;;;;;27.20;17.77;;;27.50;99.90;;;;;;5034530;28;20075;-70
2023/03/25 14:29:31;;;;;;;30.10;19.50;;;27.50;99.90;;;;;;5034680;28;20013;-71
2023/03/25 14:32:06;;;;;;;33.88;19.27;;;27.50;99.90;;;;;;5033710;28;20034;-72
2023/03/25 14:34:34;;;;;;;29.98;20.77;;;27.50;99.90;;;;;;5034752;28;20018;-71
2023/03/25 14:37:03;;;;;;;31.02;19.98;;;27.50;99.90;;;;;;5034864;28;20075;-72
2023/03/25 14:39:30;;;;;;;29.42;20.33;;;27.50;99.90;;;;;;5030461;28;20099;-70
2023/03/25 14:42:00;;;;;;;27.15;17.98;;;27.50;99.90;;;;;;5032467;28;20026;-71
2023/03/25 14:44:31;;;;;;;30.90;18.83;;;27.40;99.90;;;;;;5034110;28;20025;-71
2023/03/25 14:47:04;;;;;;;29.80;20.00;;;27.40;99.90;;;;;;5033897;28;20132;-70